Terminal Aerodrome Forecast
Issued by NWS Detroit/Pontiac, MI

Home | Current Version | Previous Version | Text Only | Print | Product List | Glossary On
Versions: 1 2 3 4 5 6 7 8 9 10 11 12 13 14 15 16 17
000
FTUS43 KDTX 270312 AAA
TAFFNT
TAF AMD
KFNT 270312Z 2703/2724 18008KT P6SM BKN025 BKN200
     FM270800 18008KT 4SM -DZ BR OVC015
     FM271400 23013KT 4SM -SHRA BR OVC015=

USA.gov is the U.S. government's official web portal to all federal, state and local government web resources and services.